Time;durP1;ratioP1;P1;durP2;ratioP2;P2;SDS_P1;SDS_P2;PMS_P1;PMS_P2;Temp;Humidity;BMP_temperature;BMP_pressure;BME280_temperature;BME280_humidity;BME280_pressure;Samples;Min_cycle;Max_cycle;Signal;HPM_P1;HPM_P2
2023/07/05 00:00:23;;;;;;;;;;;19.70;83.20;;;;;;5088328;28;19962;-66
2023/07/05 00:02:52;;;;;;;;;;;19.60;83.20;;;;;;5088684;28;19912;-65
2023/07/05 00:05:18;;;;;;;;;;;19.60;83.20;;;;;;5103723;28;19915;-65
2023/07/05 00:07:44;;;;;;;;;;;19.60;82.80;;;;;;5107339;28;19912;-66
2023/07/05 00:10:10;;;;;;;;;;;19.60;83.10;;;;;;5108637;28;19916;-66
2023/07/05 00:12:35;;;;;;;;;;;19.60;82.80;;;;;;5108903;28;19943;-65
2023/07/05 00:15:01;;;;;;;;;;;19.60;83.00;;;;;;5108537;28;19950;-65
2023/07/05 00:17:26;;;;;;;;;;;19.60;82.90;;;;;;5108568;28;19947;-66
2023/07/05 00:19:52;;;;;;;;;;;19.60;82.50;;;;;;5108517;28;20500;-65
2023/07/05 00:22:18;;;;;;;;;;;19.60;82.20;;;;;;5108679;28;19923;-65
2023/07/05 00:24:44;;;;;;;;;;;19.60;82.50;;;;;;5097910;28;19920;-65
2023/07/05 00:27:09;;;;;;;;;;;19.60;83.00;;;;;;5086798;28;19908;-65
2023/07/05 00:29:34;;;;;;;;;;;19.50;83.00;;;;;;5088091;28;19958;-65
2023/07/05 00:32:00;;;;;;;;;;;19.50;82.90;;;;;;5088505;28;20328;-66
2023/07/05 00:34:26;;;;;;;;;;;19.50;82.90;;;;;;5098998;28;19966;-65
2023/07/05 00:36:51;;;;;;;;;;;19.50;83.00;;;;;;5108302;28;19920;-65
2023/07/05 00:39:17;;;;;;;;;;;19.50;83.00;;;;;;5112179;28;19912;-65
2023/07/05 00:41:42;;;;;;;;;;;19.50;82.70;;;;;;5112354;28;19912;-65
2023/07/05 00:44:08;;;;;;;;;;;19.50;83.50;;;;;;5112207;28;19908;-65
2023/07/05 00:46:34;;;;;;;;;;;19.50;82.90;;;;;;5110867;28;19999;-65
2023/07/05 00:49:10;;;;;;;;;;;19.50;82.80;;;;;;5113505;27;19908;-65
2023/07/05 00:51:42;;;;;;;;;;;19.40;82.90;;;;;;5129955;27;19946;-65
2023/07/05 00:54:07;;;;;;;;;;;19.40;82.80;;;;;;5109727;28;20010;-65
2023/07/05 00:56:36;;;;;;;;;;;19.50;83.00;;;;;;5112230;28;20296;-65
2023/07/05 00:59:02;;;;;;;;;;;19.40;83.00;;;;;;5111850;28;19961;-65
2023/07/05 01:01:27;;;;;;;;;;;19.40;82.70;;;;;;5112386;28;19912;-65
2023/07/05 01:03:55;;;;;;;;;;;19.40;82.90;;;;;;5112073;28;19911;-65
2023/07/05 01:06:22;;;;;;;;;;;19.40;83.00;;;;;;5111669;28;19923;-65
2023/07/05 01:08:49;;;;;;;;;;;19.40;82.90;;;;;;5111852;28;19938;-65
2023/07/05 01:11:21;;;;;;;;;;;19.40;82.90;;;;;;5111636;27;19911;-65
2023/07/05 01:13:53;;;;;;;;;;;19.40;83.00;;;;;;5111879;28;20584;-65
2023/07/05 01:16:19;;;;;;;;;;;19.40;83.20;;;;;;5111627;28;20353;-65
2023/07/05 01:19:05;;;;;;;;;;;19.40;83.10;;;;;;5111720;28;19908;-65
2023/07/05 01:21:31;;;;;;;;;;;19.40;83.20;;;;;;5110163;28;20307;-65
2023/07/05 01:24:19;;;;;;;;;;;19.40;83.30;;;;;;5106207;28;19920;-65
2023/07/05 01:26:55;;;;;;;;;;;19.30;83.30;;;;;;5089784;28;19912;-65
2023/07/05 01:29:36;;;;;;;;;;;19.30;83.30;;;;;;5090971;28;19912;-65
2023/07/05 01:32:01;;;;;;;;;;;19.30;83.20;;;;;;5094702;28;19953;-65
2023/07/05 01:34:30;;;;;;;;;;;19.30;83.30;;;;;;5109372;28;19923;-65
2023/07/05 01:36:56;;;;;;;;;;;19.30;83.40;;;;;;5110779;28;19922;-65
2023/07/05 01:39:21;;;;;;;;;;;19.30;83.20;;;;;;5111217;28;19908;-65
2023/07/05 01:41:47;;;;;;;;;;;19.30;83.30;;;;;;5111195;28;19912;-65
2023/07/05 01:44:13;;;;;;;;;;;19.30;83.20;;;;;;5110713;28;19919;-65
2023/07/05 01:46:54;;;;;;;;;;;19.30;83.40;;;;;;5110280;28;19907;-65
2023/07/05 01:49:25;;;;;;;;;;;19.30;83.70;;;;;;5111307;27;20414;-65
2023/07/05 01:51:50;;;;;;;;;;;19.30;83.60;;;;;;5111375;28;19965;-65
2023/07/05 01:54:34;;;;;;;;;;;19.20;83.60;;;;;;5104543;28;19908;-65
2023/07/05 01:57:00;;;;;;;;;;;19.20;83.50;;;;;;5090519;28;19920;-65
2023/07/05 01:59:28;;;;;;;;;;;19.20;83.40;;;;;;5090318;28;19912;-65
2023/07/05 02:01:55;;;;;;;;;;;19.20;83.70;;;;;;5091070;28;19912;-65
2023/07/05 02:04:24;;;;;;;;;;;19.20;83.60;;;;;;5098218;28;19918;-66
2023/07/05 02:06:51;;;;;;;;;;;19.20;83.80;;;;;;5110796;28;19992;-66
2023/07/05 02:09:16;;;;;;;;;;;19.20;83.70;;;;;;5110562;28;19911;-65
2023/07/05 02:11:42;;;;;;;;;;;19.20;83.70;;;;;;5110618;27;19919;-65
2023/07/05 02:14:08;;;;;;;;;;;19.20;83.70;;;;;;5110260;28;19907;-65
2023/07/05 02:16:33;;;;;;;;;;;19.10;83.70;;;;;;5110255;27;19955;-66
2023/07/05 02:18:59;;;;;;;;;;;19.10;83.60;;;;;;5110570;28;19996;-65
2023/07/05 02:21:24;;;;;;;;;;;19.10;83.80;;;;;;5109225;28;19946;-65
2023/07/05 02:23:50;;;;;;;;;;;19.10;83.70;;;;;;5107579;28;20025;-66
2023/07/05 02:26:15;;;;;;;;;;;19.20;83.90;;;;;;5089852;28;20070;-65
2023/07/05 02:28:41;;;;;;;;;;;19.10;83.80;;;;;;5089738;28;19923;-66
2023/07/05 02:31:11;;;;;;;;;;;19.10;83.90;;;;;;5090158;28;20655;-66
2023/07/05 02:33:38;;;;;;;;;;;19.10;83.80;;;;;;5092533;28;20656;-65
2023/07/05 02:36:07;;;;;;;;;;;19.10;83.90;;;;;;5109474;28;19918;-65
2023/07/05 02:38:33;;;;;;;;;;;19.10;84.10;;;;;;5109902;28;19923;-66
2023/07/05 02:40:58;;;;;;;;;;;19.10;84.00;;;;;;5108432;28;19912;-65
2023/07/05 02:43:24;;;;;;;;;;;19.10;83.90;;;;;;5103332;27;20488;-65
2023/07/05 02:45:49;;;;;;;;;;;19.00;83.80;;;;;;5102890;27;19922;-65
2023/07/05 02:48:15;;;;;;;;;;;19.10;84.00;;;;;;5109916;28;19912;-65
2023/07/05 02:50:40;;;;;;;;;;;19.10;84.20;;;;;;5109763;28;20284;-65
2023/07/05 02:53:06;;;;;;;;;;;19.10;84.00;;;;;;5110018;28;20022;-65
2023/07/05 02:55:31;;;;;;;;;;;19.10;83.90;;;;;;5090577;28;19908;-65
2023/07/05 02:57:57;;;;;;;;;;;19.00;83.90;;;;;;5087486;28;19916;-65
2023/07/05 03:00:22;;;;;;;;;;;19.10;84.00;;;;;;5088973;28;19912;-64
2023/07/05 03:02:48;;;;;;;;;;;19.10;83.90;;;;;;5108677;28;19915;-65
2023/07/05 03:05:13;;;;;;;;;;;19.00;84.00;;;;;;5109401;28;19915;-65
2023/07/05 03:07:39;;;;;;;;;;;19.00;83.90;;;;;;5109286;28;19912;-65
2023/07/05 03:10:05;;;;;;;;;;;19.00;84.10;;;;;;5109152;28;19952;-65
2023/07/05 03:12:31;;;;;;;;;;;19.00;83.80;;;;;;5108890;28;20303;-65
2023/07/05 03:14:56;;;;;;;;;;;19.00;84.20;;;;;;5108128;28;19914;-65
2023/07/05 03:17:22;;;;;;;;;;;19.00;84.20;;;;;;5107511;28;19916;-65
2023/07/05 03:19:47;;;;;;;;;;;19.00;84.10;;;;;;5109252;28;19930;-65
2023/07/05 03:22:14;;;;;;;;;;;19.00;84.10;;;;;;5107837;28;19912;-65
2023/07/05 03:24:40;;;;;;;;;;;19.00;84.10;;;;;;5099243;28;20003;-65
2023/07/05 03:27:05;;;;;;;;;;;19.00;84.30;;;;;;5088602;28;20030;-65
2023/07/05 03:29:31;;;;;;;;;;;19.00;84.50;;;;;;5088787;28;20268;-65
2023/07/05 03:31:57;;;;;;;;;;;19.00;84.20;;;;;;5088631;28;19962;-65
2023/07/05 03:34:22;;;;;;;;;;;19.00;84.50;;;;;;5096823;28;19912;-65
2023/07/05 03:36:48;;;;;;;;;;;19.00;84.50;;;;;;5104517;28;20344;-65
2023/07/05 03:39:14;;;;;;;;;;;19.00;84.50;;;;;;5105390;28;19965;-65
2023/07/05 03:41:40;;;;;;;;;;;19.00;84.60;;;;;;5106582;28;19912;-65
2023/07/05 03:44:05;;;;;;;;;;;19.00;84.40;;;;;;5108534;28;19918;-65
2023/07/05 03:46:31;;;;;;;;;;;19.00;84.40;;;;;;5108610;28;19919;-65
2023/07/05 03:48:56;;;;;;;;;;;19.00;84.40;;;;;;5107158;28;20398;-65
2023/07/05 03:51:23;;;;;;;;;;;19.00;85.20;;;;;;5108800;28;19912;-65
2023/07/05 03:53:52;;;;;;;;;;;19.00;84.80;;;;;;5108598;28;19961;-65
2023/07/05 03:56:18;;;;;;;;;;;18.90;84.90;;;;;;5108639;28;19918;-65
2023/07/05 03:58:43;;;;;;;;;;;18.90;84.70;;;;;;5108957;28;19949;-65
2023/07/05 04:01:15;;;;;;;;;;;18.90;85.00;;;;;;5108676;28;19988;-66
2023/07/05 04:03:41;;;;;;;;;;;18.90;84.70;;;;;;5108737;28;19944;-66
2023/07/05 04:06:06;;;;;;;;;;;18.90;84.60;;;;;;5106661;28;19965;-65
2023/07/05 04:08:32;;;;;;;;;;;18.90;84.50;;;;;;5108885;28;19916;-65
2023/07/05 04:10:57;;;;;;;;;;;18.80;84.20;;;;;;5112558;28;20061;-66
2023/07/05 04:13:23;;;;;;;;;;;18.80;84.20;;;;;;5111459;28;20356;-65
2023/07/05 04:16:10;;;;;;;;;;;18.80;83.90;;;;;;5112419;28;19915;-65
2023/07/05 04:18:36;;;;;;;;;;;18.70;83.90;;;;;;5112691;28;19926;-65
2023/07/05 04:21:01;;;;;;;;;;;18.70;83.70;;;;;;5112483;28;19912;-66
2023/07/05 04:23:27;;;;;;;;;;;18.70;83.50;;;;;;5112331;28;19928;-66
2023/07/05 04:26:18;;;;;;;;;;;18.60;84.00;;;;;;5090633;28;19912;-66
2023/07/05 04:28:44;;;;;;;;;;;18.60;83.50;;;;;;5088863;28;19919;-66
2023/07/05 04:31:12;;;;;;;;;;;18.50;83.10;;;;;;5092171;28;19912;-66
2023/07/05 04:33:37;;;;;;;;;;;18.50;83.30;;;;;;5094813;28;20327;-66
2023/07/05 04:36:03;;;;;;;;;;;18.50;83.90;;;;;;5106683;28;19919;-65
2023/07/05 04:38:29;;;;;;;;;;;18.40;83.00;;;;;;5112143;28;19915;-66
2023/07/05 04:40:56;;;;;;;;;;;18.40;83.20;;;;;;5111195;28;20011;-65
2023/07/05 04:43:22;;;;;;;;;;;18.40;83.50;;;;;;5107510;27;19908;-66
2023/07/05 04:45:51;;;;;;;;;;;18.40;83.10;;;;;;5104161;28;19913;-66
2023/07/05 04:48:16;;;;;;;;;;;18.40;83.30;;;;;;5104367;28;20045;-66
2023/07/05 04:50:42;;;;;;;;;;;18.30;82.50;;;;;;5112135;28;20361;-66
2023/07/05 04:53:08;;;;;;;;;;;18.20;82.80;;;;;;5112243;28;19908;-65
2023/07/05 04:55:33;;;;;;;;;;;18.20;83.00;;;;;;5111784;28;19961;-66
2023/07/05 04:57:59;;;;;;;;;;;18.20;82.80;;;;;;5112269;28;19912;-66
2023/07/05 05:00:24;;;;;;;;;;;18.20;83.20;;;;;;5110767;28;20041;-65
2023/07/05 05:02:50;;;;;;;;;;;18.20;82.70;;;;;;5112102;28;20675;-66
2023/07/05 05:05:15;;;;;;;;;;;18.20;83.10;;;;;;5111594;28;19912;-66
2023/07/05 05:07:41;;;;;;;;;;;18.20;83.10;;;;;;5111926;28;19912;-65
2023/07/05 05:10:07;;;;;;;;;;;18.10;82.70;;;;;;5111180;28;19916;-65
2023/07/05 05:12:32;;;;;;;;;;;18.10;83.00;;;;;;5112358;28;19911;-66
2023/07/05 05:14:58;;;;;;;;;;;18.10;82.70;;;;;;5111713;28;19908;-65
2023/07/05 05:17:23;;;;;;;;;;;18.10;82.10;;;;;;5111478;28;19957;-65
2023/07/05 05:19:49;;;;;;;;;;;18.10;82.70;;;;;;5111646;28;19915;-65
2023/07/05 05:22:14;;;;;;;;;;;18.00;82.40;;;;;;5111723;28;20135;-65
2023/07/05 05:24:40;;;;;;;;;;;18.00;82.40;;;;;;5101586;28;19930;-65
2023/07/05 05:27:07;;;;;;;;;;;18.00;82.10;;;;;;5090038;28;20482;-66
2023/07/05 05:29:33;;;;;;;;;;;18.00;82.10;;;;;;5091101;28;19915;-65
2023/07/05 05:31:58;;;;;;;;;;;18.00;81.90;;;;;;5091213;28;19908;-65
2023/07/05 05:34:25;;;;;;;;;;;18.00;81.90;;;;;;5100411;28;19973;-65
2023/07/05 05:36:50;;;;;;;;;;;18.00;81.40;;;;;;5110665;28;19940;-65
2023/07/05 05:39:15;;;;;;;;;;;17.90;81.60;;;;;;5111254;27;19990;-66
2023/07/05 05:41:41;;;;;;;;;;;17.90;81.90;;;;;;5111308;28;20340;-66
2023/07/05 05:44:06;;;;;;;;;;;17.90;81.60;;;;;;5111170;28;19912;-65
2023/07/05 05:46:33;;;;;;;;;;;18.00;81.80;;;;;;5111170;28;19912;-65
2023/07/05 05:48:59;;;;;;;;;;;18.00;81.20;;;;;;5109811;28;19907;-65
2023/07/05 05:51:24;;;;;;;;;;;18.00;81.60;;;;;;5111277;28;19914;-65
2023/07/05 05:53:50;;;;;;;;;;;18.00;81.60;;;;;;5108078;27;20109;-65
2023/07/05 05:56:15;;;;;;;;;;;18.00;81.20;;;;;;5090381;28;19912;-65
2023/07/05 05:58:41;;;;;;;;;;;18.00;81.10;;;;;;5090545;28;19916;-66
2023/07/05 06:01:06;;;;;;;;;;;18.00;81.60;;;;;;5090537;28;19941;-66
2023/07/05 06:03:32;;;;;;;;;;;18.00;80.90;;;;;;5092643;28;20463;-65
2023/07/05 06:05:58;;;;;;;;;;;18.00;81.40;;;;;;5110434;28;20479;-66
2023/07/05 06:08:23;;;;;;;;;;;18.00;81.20;;;;;;5110960;28;19912;-66
2023/07/05 06:10:59;;;;;;;;;;;18.00;81.10;;;;;;5110294;28;19919;-65
2023/07/05 06:13:26;;;;;;;;;;;18.00;81.30;;;;;;5110771;28;19958;-65
2023/07/05 06:15:56;;;;;;;;;;;18.00;81.20;;;;;;5109634;28;19918;-66
2023/07/05 06:18:21;;;;;;;;;;;18.00;80.80;;;;;;5109481;28;19923;-65
2023/07/05 06:20:47;;;;;;;;;;;17.90;80.30;;;;;;5110597;28;19965;-66
2023/07/05 06:23:12;;;;;;;;;;;18.00;81.00;;;;;;5109237;28;19920;-65
2023/07/05 06:25:38;;;;;;;;;;;18.00;80.30;;;;;;5091817;28;19912;-65
2023/07/05 06:28:03;;;;;;;;;;;17.90;80.80;;;;;;5090182;28;20521;-66
2023/07/05 06:30:29;;;;;;;;;;;17.90;80.60;;;;;;5089511;28;19962;-66
2023/07/05 06:32:55;;;;;;;;;;;18.00;80.40;;;;;;5090000;28;19908;-65
2023/07/05 06:35:20;;;;;;;;;;;18.00;80.00;;;;;;5106764;28;20015;-66
2023/07/05 06:37:46;;;;;;;;;;;18.00;79.40;;;;;;5110039;27;20279;-66
2023/07/05 06:40:12;;;;;;;;;;;18.00;79.30;;;;;;5101580;27;19907;-66
2023/07/05 06:42:37;;;;;;;;;;;18.00;79.70;;;;;;5110276;28;19912;-66
2023/07/05 06:45:03;;;;;;;;;;;18.00;79.10;;;;;;5109938;28;20278;-66
2023/07/05 06:47:28;;;;;;;;;;;18.00;79.50;;;;;;5108760;28;19998;-66
2023/07/05 06:49:54;;;;;;;;;;;18.00;79.70;;;;;;5108926;28;19968;-66
2023/07/05 06:52:19;;;;;;;;;;;18.00;78.90;;;;;;5110054;28;19947;-66
2023/07/05 06:54:45;;;;;;;;;;;18.00;79.30;;;;;;5099199;28;19916;-65
2023/07/05 06:57:10;;;;;;;;;;;17.90;78.90;;;;;;5089190;28;19927;-66
2023/07/05 06:59:36;;;;;;;;;;;18.00;78.80;;;;;;5089375;28;20341;-66
2023/07/05 07:02:01;;;;;;;;;;;18.00;78.90;;;;;;5088099;28;19963;-65
2023/07/05 07:04:28;;;;;;;;;;;18.00;78.40;;;;;;5102842;28;19922;-65
2023/07/05 07:06:54;;;;;;;;;;;18.00;78.70;;;;;;5109249;28;19908;-65
2023/07/05 07:09:19;;;;;;;;;;;18.00;78.30;;;;;;5109641;28;19908;-65
2023/07/05 07:11:45;;;;;;;;;;;18.10;78.10;;;;;;5109787;28;19954;-65
2023/07/05 07:14:10;;;;;;;;;;;18.10;78.00;;;;;;5109368;28;20452;-66
2023/07/05 07:16:36;;;;;;;;;;;18.10;78.20;;;;;;5109239;28;19947;-65
2023/07/05 07:19:01;;;;;;;;;;;18.20;78.30;;;;;;5109542;28;19999;-65
2023/07/05 07:21:27;;;;;;;;;;;18.20;78.30;;;;;;5109659;28;19919;-65
2023/07/05 07:23:52;;;;;;;;;;;18.10;77.80;;;;;;5105926;28;20014;-65
2023/07/05 07:26:19;;;;;;;;;;;18.10;77.80;;;;;;5088864;28;19919;-65
2023/07/05 07:28:46;;;;;;;;;;;18.00;77.70;;;;;;5089041;28;19908;-65
2023/07/05 07:31:13;;;;;;;;;;;18.00;77.80;;;;;;5088980;28;19918;-65
2023/07/05 07:33:39;;;;;;;;;;;18.10;78.10;;;;;;5092014;28;19912;-65
2023/07/05 07:36:12;;;;;;;;;;;18.10;77.60;;;;;;5103791;28;20349;-66
2023/07/05 07:38:38;;;;;;;;;;;18.10;77.60;;;;;;5109016;28;19920;-65
2023/07/05 07:41:03;;;;;;;;;;;18.10;77.00;;;;;;5108342;28;19912;-65
2023/07/05 07:43:29;;;;;;;;;;;18.20;77.40;;;;;;5108206;28;19918;-65
2023/07/05 07:45:54;;;;;;;;;;;18.10;77.00;;;;;;5107945;28;19908;-66
2023/07/05 07:48:20;;;;;;;;;;;18.10;77.20;;;;;;5109285;28;19915;-66
2023/07/05 07:50:49;;;;;;;;;;;18.10;77.50;;;;;;5108933;28;20309;-65
2023/07/05 07:53:15;;;;;;;;;;;18.10;77.20;;;;;;5109270;28;19911;-65
2023/07/05 07:55:40;;;;;;;;;;;18.10;76.90;;;;;;5108474;28;19977;-65
2023/07/05 07:58:06;;;;;;;;;;;18.10;77.30;;;;;;5109037;28;20010;-65
2023/07/05 08:00:32;;;;;;;;;;;18.00;76.60;;;;;;5107169;28;19912;-65
2023/07/05 08:02:57;;;;;;;;;;;17.90;77.10;;;;;;5107307;28;19912;-65
2023/07/05 08:05:23;;;;;;;;;;;18.00;77.30;;;;;;5108392;28;19908;-65
2023/07/05 08:07:49;;;;;;;;;;;18.00;77.20;;;;;;5109211;28;19961;-65
2023/07/05 08:10:15;;;;;;;;;;;18.00;77.10;;;;;;5108899;28;19908;-65
2023/07/05 08:12:40;;;;;;;;;;;18.00;77.40;;;;;;5108858;28;19912;-65
2023/07/05 08:15:06;;;;;;;;;;;17.90;76.30;;;;;;5107289;28;20010;-65
2023/07/05 08:17:31;;;;;;;;;;;18.00;76.80;;;;;;5108695;28;20314;-65
2023/07/05 08:19:57;;;;;;;;;;;18.00;76.70;;;;;;5107421;28;19912;-65
2023/07/05 08:22:23;;;;;;;;;;;18.10;76.60;;;;;;5108716;28;19947;-65
2023/07/05 08:24:49;;;;;;;;;;;18.00;76.60;;;;;;5097604;28;19991;-66
2023/07/05 08:27:14;;;;;;;;;;;18.10;76.10;;;;;;5088408;28;19961;-65
2023/07/05 08:29:41;;;;;;;;;;;18.20;76.40;;;;;;5088239;28;20258;-65
2023/07/05 08:32:06;;;;;;;;;;;18.20;76.50;;;;;;5086970;28;20553;-65
2023/07/05 08:34:32;;;;;;;;;;;18.30;76.30;;;;;;5098363;28;19965;-65
2023/07/05 08:36:57;;;;;;;;;;;18.30;76.90;;;;;;5110049;28;19912;-66
2023/07/05 08:39:23;;;;;;;;;;;18.30;76.50;;;;;;5108441;28;20287;-65
2023/07/05 08:41:48;;;;;;;;;;;18.30;76.40;;;;;;5108785;28;19914;-65
2023/07/05 08:44:14;;;;;;;;;;;18.30;76.30;;;;;;5107152;28;19908;-65
2023/07/05 08:46:40;;;;;;;;;;;18.20;76.60;;;;;;5108273;28;19918;-66
2023/07/05 08:49:18;;;;;;;;;;;18.20;76.20;;;;;;5108435;28;19919;-65
2023/07/05 08:51:44;;;;;;;;;;;18.20;76.20;;;;;;5108527;28;20275;-66
2023/07/05 08:54:13;;;;;;;;;;;18.10;76.80;;;;;;5103393;28;19916;-65
2023/07/05 08:56:45;;;;;;;;;;;18.20;76.80;;;;;;5091559;28;19958;-65
2023/07/05 08:59:26;;;;;;;;;;;18.20;76.60;;;;;;5091757;28;19950;-66
2023/07/05 09:01:54;;;;;;;;;;;18.20;76.50;;;;;;5091912;28;19912;-66
2023/07/05 09:04:24;;;;;;;;;;;18.10;76.60;;;;;;5100399;28;19938;-65
2023/07/05 09:06:55;;;;;;;;;;;18.10;76.60;;;;;;5111685;28;19912;-66
2023/07/05 09:09:24;;;;;;;;;;;18.10;76.50;;;;;;5111064;28;20595;-65
2023/07/05 09:11:49;;;;;;;;;;;18.00;76.60;;;;;;5110211;28;19912;-65
2023/07/05 09:14:21;;;;;;;;;;;18.00;76.30;;;;;;5112445;27;19918;-65
2023/07/05 09:16:51;;;;;;;;;;;18.00;76.50;;;;;;5124742;27;20378;-66
2023/07/05 09:19:36;;;;;;;;;;;18.00;76.30;;;;;;5102203;28;20383;-65
2023/07/05 09:22:04;;;;;;;;;;;18.00;76.20;;;;;;5099521;28;20029;-65
2023/07/05 09:24:38;;;;;;;;;;;18.00;75.90;;;;;;5111702;28;19947;-65
2023/07/05 09:27:18;;;;;;;;;;;18.00;76.40;;;;;;5111339;28;19968;-65
2023/07/05 09:30:00;;;;;;;;;;;18.00;75.90;;;;;;5111773;28;19919;-65
2023/07/05 09:32:34;;;;;;;;;;;18.00;75.60;;;;;;5111470;28;19915;-65
2023/07/05 09:35:00;;;;;;;;;;;18.10;75.90;;;;;;5111823;27;19916;-65
2023/07/05 09:37:27;;;;;;;;;;;18.10;75.80;;;;;;5110554;28;19915;-66
2023/07/05 09:39:59;;;;;;;;;;;18.30;75.60;;;;;;5111308;28;19912;-66
2023/07/05 09:42:27;;;;;;;;;;;18.40;75.10;;;;;;5109454;28;19915;-66
2023/07/05 09:44:52;;;;;;;;;;;18.50;74.70;;;;;;5110831;28;19911;-66
2023/07/05 09:47:20;;;;;;;;;;;18.60;74.60;;;;;;5111090;28;19914;-65
2023/07/05 09:49:46;;;;;;;;;;;18.70;74.60;;;;;;5111465;27;19912;-66
2023/07/05 09:52:12;;;;;;;;;;;18.70;74.50;;;;;;5111480;28;20024;-66
2023/07/05 09:54:37;;;;;;;;;;;18.80;74.10;;;;;;5101283;28;20086;-65
2023/07/05 09:57:09;;;;;;;;;;;18.80;74.10;;;;;;5090318;28;19916;-66
2023/07/05 09:59:36;;;;;;;;;;;18.90;74.00;;;;;;5090448;28;20384;-66
2023/07/05 10:02:04;;;;;;;;;;;19.00;73.70;;;;;;5090715;28;19951;-65
2023/07/05 10:04:29;;;;;;;;;;;19.00;73.70;;;;;;5100874;28;19962;-65
2023/07/05 10:06:55;;;;;;;;;;;19.10;73.60;;;;;;5109573;28;19962;-66
2023/07/05 10:09:22;;;;;;;;;;;19.20;73.50;;;;;;5110840;28;19923;-65
2023/07/05 10:11:49;;;;;;;;;;;19.20;73.50;;;;;;5109545;28;20010;-66
2023/07/05 10:14:16;;;;;;;;;;;19.20;73.30;;;;;;5110892;28;19907;-65
2023/07/05 10:16:46;;;;;;;;;;;19.30;73.40;;;;;;5110565;28;19980;-66
2023/07/05 10:19:24;;;;;;;;;;;19.30;73.30;;;;;;5110948;28;19916;-65
2023/07/05 10:21:57;;;;;;;;;;;19.40;73.00;;;;;;5110961;28;20358;-65
2023/07/05 10:24:22;;;;;;;;;;;19.30;73.40;;;;;;5102915;27;20395;-66
2023/07/05 10:26:50;;;;;;;;;;;19.20;72.90;;;;;;5090032;28;19958;-66
2023/07/05 10:29:19;;;;;;;;;;;19.20;73.30;;;;;;5090034;28;19916;-65
2023/07/05 10:31:52;;;;;;;;;;;19.20;73.00;;;;;;5090331;28;19912;-65
2023/07/05 10:34:19;;;;;;;;;;;19.20;73.50;;;;;;5112965;27;19908;-66
2023/07/05 10:36:45;;;;;;;;;;;19.30;73.40;;;;;;5104307;28;20011;-65
2023/07/05 10:39:11;;;;;;;;;;;19.20;73.10;;;;;;5109943;28;19998;-65
2023/07/05 10:41:37;;;;;;;;;;;19.20;73.20;;;;;;5110361;28;19908;-65
2023/07/05 10:44:15;;;;;;;;;;;19.20;73.10;;;;;;5110035;28;19959;-65
2023/07/05 10:46:41;;;;;;;;;;;19.30;72.50;;;;;;5109810;27;19916;-65
2023/07/05 10:49:11;;;;;;;;;;;19.30;72.80;;;;;;5110215;28;19919;-66
2023/07/05 10:51:40;;;;;;;;;;;19.50;72.10;;;;;;5110032;28;19938;-65
2023/07/05 10:54:14;;;;;;;;;;;19.60;72.20;;;;;;5104742;28;19920;-66
2023/07/05 10:56:41;;;;;;;;;;;19.80;71.90;;;;;;5089249;28;20386;-66
2023/07/05 10:59:27;;;;;;;;;;;19.80;71.60;;;;;;5089457;28;20064;-66
2023/07/05 11:02:01;;;;;;;;;;;19.80;71.70;;;;;;5077285;28;20410;-66
2023/07/05 11:04:29;;;;;;;;;;;19.80;71.70;;;;;;5099395;28;20398;-66
2023/07/05 11:07:00;;;;;;;;;;;19.80;71.20;;;;;;5109338;28;19908;-66
2023/07/05 11:09:26;;;;;;;;;;;19.70;71.30;;;;;;5109586;28;20352;-66
2023/07/05 11:11:54;;;;;;;;;;;19.70;71.60;;;;;;5109587;28;20367;-66
2023/07/05 11:14:20;;;;;;;;;;;19.60;71.80;;;;;;5109471;28;19938;-66
2023/07/05 11:16:47;;;;;;;;;;;19.70;72.00;;;;;;5109427;28;19911;-65
2023/07/05 11:19:17;;;;;;;;;;;19.70;71.20;;;;;;5109528;28;19911;-66
2023/07/05 11:21:46;;;;;;;;;;;19.60;71.10;;;;;;5109321;28;19923;-66
2023/07/05 11:24:13;;;;;;;;;;;19.60;70.70;;;;;;5109308;28;19927;-65
2023/07/05 11:26:39;;;;;;;;;;;19.70;71.60;;;;;;5109363;28;19915;-66
2023/07/05 11:29:23;;;;;;;;;;;19.70;71.20;;;;;;5109500;28;19930;-66
2023/07/05 11:31:48;;;;;;;;;;;19.80;70.60;;;;;;5109423;28;19961;-66
2023/07/05 11:34:20;;;;;;;;;;;19.90;70.70;;;;;;5109471;28;19959;-66
2023/07/05 11:36:46;;;;;;;;;;;20.00;70.10;;;;;;5104581;28;19912;-66
2023/07/05 11:39:30;;;;;;;;;;;20.00;69.40;;;;;;5105596;28;19916;-66
2023/07/05 11:41:56;;;;;;;;;;;20.00;69.90;;;;;;5102043;28;20436;-65
2023/07/05 11:44:25;;;;;;;;;;;20.00;70.10;;;;;;5108318;28;19919;-65
2023/07/05 11:46:50;;;;;;;;;;;20.10;70.30;;;;;;5107000;27;20779;-65
2023/07/05 11:49:26;;;;;;;;;;;20.20;70.20;;;;;;5102110;28;19912;-65
2023/07/05 11:52:00;;;;;;;;;;;20.30;69.00;;;;;;5100969;27;19915;-65
2023/07/05 11:54:30;;;;;;;;;;;20.50;69.60;;;;;;5099444;27;19969;-66
2023/07/05 11:56:56;;;;;;;;;;;20.50;69.10;;;;;;5107039;28;19916;-66
2023/07/05 11:59:22;;;;;;;;;;;20.50;68.90;;;;;;5107718;28;20697;-65
2023/07/05 12:01:48;;;;;;;;;;;20.60;68.90;;;;;;5108073;28;19965;-66
2023/07/05 12:04:18;;;;;;;;;;;20.70;68.70;;;;;;5106412;28;19911;-65
2023/07/05 12:06:44;;;;;;;;;;;20.80;68.70;;;;;;5104870;28;19912;-66
2023/07/05 12:09:15;;;;;;;;;;;20.80;68.50;;;;;;5106361;28;20007;-65
2023/07/05 12:11:41;;;;;;;;;;;20.90;69.10;;;;;;5107932;28;20014;-66
2023/07/05 12:14:11;;;;;;;;;;;20.90;68.30;;;;;;5107758;28;20383;-66
2023/07/05 12:16:37;;;;;;;;;;;20.90;68.90;;;;;;5107542;28;19919;-66
2023/07/05 12:19:05;;;;;;;;;;;20.90;68.00;;;;;;5108011;28;19939;-66
2023/07/05 12:21:34;;;;;;;;;;;20.90;68.70;;;;;;5107973;28;19915;-65
2023/07/05 12:24:03;;;;;;;;;;;20.90;67.90;;;;;;5103333;28;19920;-66
2023/07/05 12:26:34;;;;;;;;;;;20.90;68.10;;;;;;5122804;27;19911;-66
2023/07/05 12:29:03;;;;;;;;;;;20.90;68.50;;;;;;5128877;27;20019;-66
2023/07/05 12:31:29;;;;;;;;;;;20.80;67.50;;;;;;5132590;27;19911;-66
2023/07/05 12:33:55;;;;;;;;;;;20.80;67.60;;;;;;5125677;27;19912;-66
2023/07/05 12:36:22;;;;;;;;;;;20.90;68.20;;;;;;5109707;28;19915;-66
2023/07/05 12:39:05;;;;;;;;;;;21.00;66.80;;;;;;5111647;28;20015;-66
2023/07/05 12:41:30;;;;;;;;;;;21.20;67.40;;;;;;5111741;28;19996;-66
2023/07/05 12:44:00;;;;;;;;;;;21.30;67.10;;;;;;5111572;28;19955;-66
2023/07/05 12:46:26;;;;;;;;;;;21.50;66.80;;;;;;5111321;27;19990;-66
2023/07/05 12:48:52;;;;;;;;;;;21.50;66.20;;;;;;5111717;28;19908;-66
2023/07/05 12:51:19;;;;;;;;;;;21.40;65.10;;;;;;5111660;28;20448;-66
2023/07/05 12:53:48;;;;;;;;;;;21.40;66.10;;;;;;5109405;28;19908;-66
2023/07/05 12:56:17;;;;;;;;;;;21.40;65.30;;;;;;5092355;28;19918;-66
2023/07/05 12:58:53;;;;;;;;;;;21.40;66.00;;;;;;5106714;28;19915;-66
2023/07/05 13:01:19;;;;;;;;;;;21.50;66.10;;;;;;5111487;27;20061;-66
2023/07/05 13:03:46;;;;;;;;;;;21.60;66.50;;;;;;5109773;27;19912;-66
2023/07/05 13:06:11;;;;;;;;;;;21.60;66.40;;;;;;5109308;28;20006;-66
2023/07/05 13:08:46;;;;;;;;;;;21.70;65.90;;;;;;5111277;28;20027;-66
2023/07/05 13:11:15;;;;;;;;;;;21.80;65.60;;;;;;5110652;28;19923;-66
2023/07/05 13:13:41;;;;;;;;;;;21.70;66.30;;;;;;5111174;28;20515;-66
2023/07/05 13:16:24;;;;;;;;;;;21.80;66.30;;;;;;5110366;28;19922;-66
2023/07/05 13:19:00;;;;;;;;;;;21.90;65.80;;;;;;5111325;28;19916;-66
2023/07/05 13:21:35;;;;;;;;;;;22.00;65.60;;;;;;5110961;28;20514;-66
2023/07/05 13:24:02;;;;;;;;;;;22.10;66.10;;;;;;5104776;28;20352;-66
2023/07/05 13:26:30;;;;;;;;;;;22.00;65.20;;;;;;5091470;28;19998;-66
2023/07/05 13:28:59;;;;;;;;;;;22.00;65.10;;;;;;5110778;28;20526;-66
2023/07/05 13:31:25;;;;;;;;;;;22.00;65.60;;;;;;5110777;28;19911;-66
2023/07/05 13:33:55;;;;;;;;;;;22.00;65.40;;;;;;5110620;28;19964;-66
2023/07/05 13:36:20;;;;;;;;;;;22.00;65.60;;;;;;5110190;28;19914;-66
2023/07/05 13:38:46;;;;;;;;;;;21.90;65.80;;;;;;5110647;28;20300;-66
2023/07/05 13:41:11;;;;;;;;;;;21.90;65.70;;;;;;5108864;27;20018;-66
2023/07/05 13:43:37;;;;;;;;;;;21.90;65.70;;;;;;5110845;28;19919;-66
2023/07/05 13:46:02;;;;;;;;;;;21.90;65.70;;;;;;5109894;28;19916;-66
2023/07/05 13:48:28;;;;;;;;;;;22.00;65.50;;;;;;5110736;28;20325;-66
2023/07/05 13:50:54;;;;;;;;;;;22.00;66.00;;;;;;5109967;28;19911;-68
2023/07/05 13:53:21;;;;;;;;;;;22.10;65.70;;;;;;5110005;28;19915;-66
2023/07/05 13:55:47;;;;;;;;;;;22.10;66.10;;;;;;5109520;28;20021;-66
2023/07/05 13:58:14;;;;;;;;;;;22.20;66.30;;;;;;5108771;28;19943;-66
2023/07/05 14:00:40;;;;;;;;;;;22.30;66.40;;;;;;5109994;28;20387;-66
2023/07/05 14:03:06;;;;;;;;;;;22.40;66.20;;;;;;5110948;28;19915;-66
2023/07/05 14:05:32;;;;;;;;;;;22.50;66.00;;;;;;5110395;28;19919;-66
2023/07/05 14:08:02;;;;;;;;;;;22.70;65.70;;;;;;5110997;28;19962;-66
2023/07/05 14:10:28;;;;;;;;;;;22.70;65.80;;;;;;5110301;28;20380;-66
2023/07/05 14:12:54;;;;;;;;;;;22.70;65.80;;;;;;5110953;28;19915;-66
2023/07/05 14:15:25;;;;;;;;;;;22.80;66.20;;;;;;5109129;28;20488;-66
2023/07/05 14:17:51;;;;;;;;;;;22.80;65.60;;;;;;5110751;28;19926;-66